Flight Track Log - Related Links

Times and Time Zones

All times are in EDT time to prevent confusion due to time zone crossing. See the JBU41 flight status page for this flight to view local times or setup timezone preferences in your user account.

Time Position Orientation Groundspeed Altitude Reporting Facility
EDT Latitude Longitude Course Direction KTS MPH feet Rate Location/Type
Thu 11:37:26 AM 40.6500 -73.7667 146° Southeast 198 228 600  Level New York TRACON
Thu 11:38:26 AM 40.6333 -73.7167 114° Southeast 245 282 3,100 2,368 Climbing New York TRACON
Thu 11:39:20 AM 40.5833 -73.7667 217° Southwest 264 304 5,100 2,514 Climbing New York TRACON
Thu 11:40:00 AM 40.3274 -73.4941 143° Southeast  Level FlightAware Approximate
Thu 11:40:54 AM 40.5025 -73.8553 220° Southwest 272 313 9,300  Level New York Center
Thu 11:41:00 AM 40.2403 -73.3903 143° Southeast  Level FlightAware Approximate
Thu 11:41:55 AM 40.4325 -73.8275 163° South 276 318 11,400  Level New York Center
Thu 11:42:00 AM 40.1368 -73.2974 146° Southeast  Level FlightAware Approximate
Thu 11:42:55 AM 40.3272 -73.7931 166° South 336 387 13,900  Level New York Center
Thu 11:43:55 AM 40.2425 -73.7594 163° South 360 414 16,200 2,390 Climbing New York Center
Thu 11:44:53 AM 40.1331 -73.7192 164° South 375 432 18,600 1,882 Climbing New York Center
Thu 11:47:19 AM 39.8861 -73.7094 178° South 389 448 22,600 1,639 Climbing Washington Center
Thu 11:48:18 AM 39.7761 -73.7233 186° South 407 468 24,200 1,412 Climbing Washington Center
Thu 11:49:18 AM 39.6639 -73.7422 187° South 407 468 25,400 1,339 Climbing Washington Center
Thu 11:50:19 AM 39.5756 -73.8308 218° Southwest 388 447 26,900 1,361 Climbing Washington Center
Thu 11:51:17 AM 39.4914 -73.9297 222° Southwest 400 460 28,100 1,210 Climbing Washington Center
Thu 11:52:18 AM 39.4053 -74.0283 222° Southwest 410 472 29,300 1,091 Climbing Washington Center
Thu 11:53:18 AM 39.3147 -74.1242 219° Southwest 421 484 30,300 1,091 Climbing Washington Center
Thu 11:54:19 AM 39.2242 -74.2253 221° Southwest 432 497 31,500 1,041 Climbing Washington Center
Thu 11:55:19 AM 39.1358 -74.3206 220° Southwest 427 491 32,400 1,119 Climbing Washington Center
Thu 11:56:17 AM 39.0450 -74.4183 220° Southwest 427 491 33,700 807 Climbing Washington Center
Thu 11:57:18 AM 38.9542 -74.5186 221° Southwest 427 491 34,000 149 Climbing Washington Center
Thu 11:58:18 AM 38.8614 -74.6158 219° Southwest 427 491 34,000  Level Washington Center
Thu 11:59:20 AM 38.7725 -74.7131 220° Southwest 427 491 34,000  Level Washington Center
Thu 12:00:17 PM 38.6833 -74.8097 220° Southwest 427 491 34,000  Level Washington Center
Thu 12:01:18 PM 38.5903 -74.9064 219° Southwest 427 491 34,000  Level Washington Center
Thu 12:02:19 PM 38.5011 -74.9947 218° Southwest 422 486 34,000 149 Level Washington Center
Thu 12:03:19 PM 38.4033 -75.0831 215° Southwest 427 491 34,300 508 Climbing Washington Center
Thu 12:04:17 PM 38.2994 -75.1683 213° Southwest 433 498 35,000 661 Climbing Washington Center
Thu 12:05:17 PM 38.1956 -75.2456 210° Southwest 444 511 35,600 496 Climbing Washington Center
Thu 12:06:18 PM 38.0872 -75.3228 209° Southwest 449 517 36,000 197 Climbing Washington Center
Thu 12:07:19 PM 37.9789 -75.3994 209° Southwest 444 511 36,000  Level Washington Center
Thu 12:08:19 PM 37.8728 -75.4761 210° Southwest 444 511 36,000  Level Washington Center
Thu 12:09:17 PM 37.7644 -75.5525 209° Southwest 444 511 36,000  Level Washington Center
Thu 12:10:17 PM 37.6558 -75.6311 210° Southwest 444 511 36,000  Level Washington Center
Thu 12:11:18 PM 37.5475 -75.7069 209° Southwest 439 505 36,000  Level Washington Center
Thu 12:12:18 PM 37.4408 -75.7828 209° Southwest 439 505 36,000  Level Washington Center
Thu 12:13:19 PM 37.3344 -75.8583 209° Southwest 439 505 36,000  Level Washington Center
Thu 12:14:19 PM 37.2278 -75.9336 209° Southwest 439 505 36,000  Level Washington Center
Thu 12:15:16 PM 37.1192 -76.0086 209° Southwest 439 505 36,000  Level Washington Center
Thu 12:16:17 PM 37.0144 -76.0861 211° Southwest 439 505 36,000  Level Washington Center
Thu 12:17:17 PM 36.8994 -76.1581 207° Southwest 453 521 36,000  Level Washington Center
Thu 12:18:18 PM 36.7928 -76.2325 209° Southwest 453 521 36,000  Level Washington Center
Thu 12:19:18 PM 36.6756 -76.3197 211° Southwest 453 521 36,000  Level Washington Center
Thu 12:20:18 PM 36.5686 -76.3911 208° Southwest 448 516 36,000  Level Washington Center
Thu 12:21:19 PM 36.4594 -76.4647 208° Southwest 442 509 36,000  Level Washington Center
Thu 12:22:17 PM 36.3506 -76.5383 209° Southwest 442 509 36,000  Level Washington Center
Thu 12:23:18 PM 36.2414 -76.6144 209° Southwest 442 509 36,000  Level Washington Center
Thu 12:24:19 PM 36.1303 -76.6850 207° Southwest 442 509 36,000  Level Washington Center
Thu 12:25:17 PM 36.0253 -76.7606 210° Southwest 442 509 36,000  Level Washington Center
Thu 12:26:18 PM 35.9158 -76.8333 208° Southwest 442 509 36,000  Level Washington Center
Thu 12:27:18 PM 35.8086 -76.9086 210° Southwest 442 509 36,000  Level Washington Center
Thu 12:28:19 PM 35.6994 -76.9783 207° Southwest 442 509 36,000  Level Washington Center
Thu 12:29:19 PM 35.6047 -77.0456 210° Southwest 442 509 36,000  Level Washington Center
Thu 12:30:17 PM 35.4975 -77.1203 210° Southwest 442 509 36,000  Level Washington Center
Thu 12:31:17 PM 35.3858 -77.1894 207° Southwest 447 514 36,000  Level Washington Center
Thu 12:32:18 PM 35.2786 -77.2636 209° Southwest 447 514 36,000  Level Washington Center
Thu 12:33:19 PM 35.1669 -77.3375 208° Southwest 442 509 36,000  Level Washington Center
Thu 12:34:17 PM 35.0594 -77.4089 209° Southwest 442 509 36,000 50 Level Washington Center
Thu 12:35:18 PM 34.9475 -77.4850 209° Southwest 442 509 36,100  Climbing Washington Center
Thu 12:36:19 PM 34.8358 -77.5556 207° Southwest 447 514 36,000 -50 Descending Washington Center
Thu 12:37:19 PM 34.7178 -77.6386 210° Southwest 447 514 36,000  Level Washington Center
Thu 12:38:17 PM 34.6081 -77.7092 208° Southwest 447 514 36,000  Level Washington Center
Thu 12:39:17 PM 34.4961 -77.7844 209° Southwest 452 520 36,000  Level Washington Center
Thu 12:40:18 PM 34.3842 -77.8544 207° Southwest 452 520 36,000  Level Washington Center
Thu 12:41:19 PM 34.2664 -77.8964 196° South 489 563 36,000  Level Washington Center
Thu 12:43:38 PM 33.9542 -77.9933 194° South 470 541 36,000  Level Jacksonville Center
Thu 12:44:38 PM 33.8303 -78.0250 192° South 471 542 36,000  Level Jacksonville Center
Thu 12:45:38 PM 33.7064 -78.0619 194° South 471 542 36,000  Level Jacksonville Center
Thu 12:46:38 PM 33.5908 -78.0956 194° South 471 542 36,000  Level Jacksonville Center
Thu 12:47:38 PM 33.4647 -78.1300 193° South 466 536 36,000  Level Jacksonville Center
Thu 12:48:38 PM 33.3389 -78.1664 194° South 466 536 36,000  Level Jacksonville Center
Thu 12:49:38 PM 33.2108 -78.2006 193° South 466 536 36,000  Level Jacksonville Center
Thu 12:50:38 PM 33.0869 -78.2342 193° South 466 536 36,000  Level Jacksonville Center
Thu 12:51:38 PM 32.9589 -78.2706 193° South 466 536 36,000  Level Jacksonville Center
Thu 12:52:38 PM 32.8350 -78.3092 195° South 466 536 36,000  Level Jacksonville Center
Thu 12:53:38 PM 32.7089 -78.3403 192° South 466 536 36,000  Level Jacksonville Center
Thu 12:54:38 PM 32.5828 -78.3786 194° South 466 536 36,000  Level Jacksonville Center
Thu 12:55:38 PM 32.4589 -78.4119 193° South 466 536 36,000  Level Jacksonville Center
Thu 12:56:38 PM 32.3347 -78.4450 193° South 466 536 36,000  Level Jacksonville Center
Thu 12:57:38 PM 32.2128 -78.4828 195° South 466 536 36,000  Level Jacksonville Center
Thu 12:58:38 PM 32.0847 -78.5183 193° South 466 536 36,000  Level Jacksonville Center
Thu 12:59:38 PM 31.9608 -78.5536 194° South 466 536 36,000  Level Jacksonville Center
Thu 01:00:38 PM 31.8389 -78.5911 195° South 466 536 36,000  Level Jacksonville Center
Thu 01:01:38 PM 31.7128 -78.6289 194° South 466 536 36,000  Level Jacksonville Center
Thu 01:02:38 PM 31.5886 -78.6614 193° South 466 536 36,000  Level Jacksonville Center
Thu 01:03:38 PM 31.4503 -78.7089 196° South 461 531 36,000  Level Jacksonville Center
Thu 01:04:38 PM 31.3303 -78.7436 194° South 460 529 36,000  Level Jacksonville Center
Thu 01:05:38 PM 31.2100 -78.7633 188° South 468 539 36,000  Level Jacksonville Center
Thu 01:06:38 PM 31.0861 -78.8053 196° South 468 539 36,000  Level Jacksonville Center
Thu 01:07:38 PM 30.9517 -78.8497 196° South 468 539 36,000  Level Jacksonville Center
Thu 01:08:38 PM 30.8214 -78.8844 193° South 482 555 36,000  Level Jacksonville Center
Thu 01:10:22 PM 30.6236 -78.9425 194° South 461 531 36,000  Level Miami Center
Thu 01:11:22 PM 30.4981 -78.9736 192° South 461 531 36,000  Level Miami Center
Thu 01:12:22 PM 30.3703 -79.0167 196° South 461 531 36,000  Level Miami Center
Thu 01:13:22 PM 30.2550 -79.0697 202° Southwest 461 531 36,000  Level Miami Center
Thu 01:14:22 PM 30.1372 -79.1200 200° South 456 525 36,000  Level Miami Center
Thu 01:15:22 PM 30.0219 -79.1703 201° Southwest 451 519 36,000  Level Miami Center
Thu 01:16:22 PM 29.9064 -79.2253 202° Southwest 451 519 36,000  Level Miami Center
Thu 01:17:22 PM 29.7908 -79.2753 201° Southwest 451 519 36,000  Level Miami Center
Thu 01:18:22 PM 29.6711 -79.3228 199° South 456 525 36,000  Level Miami Center
Thu 01:19:22 PM 29.5617 -79.3775 204° Southwest 451 519 36,000 -250 Level Miami Center
Thu 01:20:22 PM 29.4400 -79.4225 198° South 451 519 35,500 -1,350 Descending Miami Center
Thu 01:21:22 PM 29.3283 -79.4769 203° Southwest 451 519 33,300 -2,300 Descending Miami Center
Thu 01:22:22 PM 29.2128 -79.5264 200° South 451 519 30,900 -2,300 Descending Miami Center
Thu 01:23:22 PM 29.0992 -79.5831 204° Southwest 451 519 28,700 -2,200 Descending Miami Center
Thu 01:24:22 PM 29.0344 -79.6858 234° Southwest 407 468 26,500 -1,950 Descending Miami Center
Thu 01:25:22 PM 29.0194 -79.8136 262° West 374 430 24,800 -1,650 Descending Miami Center
Thu 01:26:22 PM 28.9833 -79.9336 251° West 397 457 23,200 -1,900 Descending Miami Center
Thu 01:27:22 PM 28.9453 -80.0511 250° West 402 463 21,000 -2,200 Descending Miami Center
Thu 01:28:22 PM 28.9094 -80.1686 251° West 402 463 18,800 -2,150 Descending Miami Center
Thu 01:29:22 PM 28.8733 -80.2836 250° West 402 463 16,700 -1,846 Descending Miami Center
Thu 01:30:58 PM 28.8333 -80.4667 256° West 333 383 14,000 -1,125 Descending Orlando TRACON
Thu 01:31:46 PM 28.8167 -80.5500 257° West 331 381 14,000  Level Orlando TRACON
Thu 01:32:46 PM 28.8000 -80.6500 259° West 331 381 14,000 -600 Level Orlando TRACON
Thu 01:33:46 PM 28.7833 -80.7500 259° West 328 377 12,800 -1,571 Descending Orlando TRACON
Thu 01:34:52 PM 28.7333 -80.8500 240° Southwest 324 373 10,700 -1,318 Descending Orlando TRACON
Thu 01:35:58 PM 28.6833 -80.9333 236° Southwest 282 325 9,900 -767 Descending Orlando TRACON
Thu 01:37:05 PM 28.6500 -81.0167 246° West 271 312 9,000 -470 Descending Orlando TRACON
Thu 01:37:53 PM 28.6000 -81.0667 221° Southwest 268 308 9,000  Level Orlando TRACON
Thu 01:38:53 PM 28.5667 -81.1333 240° Southwest 226 260 9,000 -150 Level Orlando TRACON
Thu 01:39:53 PM 28.5333 -81.1833 233° Southwest 230 265 8,700 -750 Descending Orlando TRACON
Thu 01:40:53 PM 28.4667 -81.1833 180° South 235 270 7,500 -1,400 Descending Orlando TRACON
Thu 01:41:53 PM 28.4000 -81.1833 180° South 232 267 5,900 -1,636 Descending Orlando TRACON
Thu 01:42:54 PM 28.3333 -81.1833 180° South 229 264 4,200 -1,686 Descending Orlando TRACON
Thu 01:43:54 PM 28.2833 -81.2167 210° Southwest 221 254 2,500 -1,300 Descending Orlando TRACON
Thu 01:44:54 PM 28.3167 -81.2667 307° West 205 236 1,600 -579 Descending Orlando TRACON
Thu 01:45:48 PM 28.3500 -81.2833 336° Northwest 173 199 1,400 -222 Descending Orlando TRACON

Login

Don't have an account? Register now (free) for customized features, flight alerts, and more!